Time;durP1;ratioP1;P1;durP2;ratioP2;P2;SDS_P1;SDS_P2;PMS_P1;PMS_P2;Temp;Humidity;BMP_temperature;BMP_pressure;BME280_temperature;BME280_humidity;BME280_pressure;Samples;Min_cycle;Max_cycle;Signal;HPM_P1;HPM_P2
2024/01/08 00:01:49;;;;;;;9.07;4.63;;;;;;;;;;5046689;28;20541;-73
2024/01/08 00:04:14;;;;;;;7.37;3.97;;;;;;;;;;5029378;28;20033;-74
2024/01/08 00:06:40;;;;;;;6.80;4.10;;;;;;;;;;5027837;28;20033;-75
2024/01/08 00:09:05;;;;;;;8.97;4.60;;;;;;;;;;5028710;28;20374;-75
2024/01/08 00:11:31;;;;;;;7.57;3.97;;;;;;;;;;5034196;28;20528;-74
2024/01/08 00:13:56;;;;;;;7.73;3.73;;;;;;;;;;5040028;28;20090;-75
2024/01/08 00:16:22;;;;;;;7.57;3.70;;;;;;;;;;5053691;28;20049;-72
2024/01/08 00:18:47;;;;;;;4.90;3.23;;;;;;;;;;5049598;28;20085;-76
2024/01/08 00:21:13;;;;;;;7.23;3.93;;;;;;;;;;5049619;28;20032;-76
2024/01/08 00:23:38;;;;;;;9.40;4.10;;;;;;;;;;5048388;28;20021;-75
2024/01/08 00:26:04;;;;;;;6.80;4.13;;;;;;;;;;5043984;28;20477;-75
2024/01/08 00:28:30;;;;;;;9.13;4.83;;;;;;;;;;5032189;28;20480;-76
2024/01/08 00:30:56;;;;;;;8.07;4.27;;;;;;;;;;5037329;28;20082;-74
2024/01/08 00:33:21;;;;;;;6.60;3.47;;;;;;;;;;5037174;28;20480;-74
2024/01/08 00:35:47;;;;;;;7.03;4.17;;;;;;;;;;5033425;28;20041;-75
2024/01/08 00:38:12;;;;;;;8.03;4.67;;;;;;;;;;5031467;28;20044;-75
2024/01/08 00:40:38;;;;;;;6.67;4.17;;;;;;;;;;5032325;28;20494;-74
2024/01/08 00:43:03;;;;;;;9.10;4.60;;;;;;;;;;5032396;28;20028;-76
2024/01/08 00:45:29;;;;;;;6.63;4.00;;;;;;;;;;5032117;28;20040;-72
2024/01/08 00:47:55;;;;;;;6.50;4.10;;;;;;;;;;5030811;28;20116;-78
2024/01/08 00:50:21;;;;;;;8.53;5.10;;;;;;;;;;5031373;28;20405;-75
2024/01/08 00:52:46;;;;;;;7.57;4.27;;;;;;;;;;5031178;28;20048;-73
2024/01/08 00:55:12;;;;;;;7.10;3.83;;;;;;;;;;5031231;28;20033;-76
2024/01/08 00:57:39;;;;;;;6.37;4.00;;;;;;;;;;5032276;28;20453;-75
2024/01/08 01:00:05;;;;;;;7.00;4.17;;;;;;;;;;5033809;28;20029;-75
2024/01/08 01:02:31;;;;;;;8.37;4.23;;;;;;;;;;5042735;28;20033;-74
2024/01/08 01:04:57;;;;;;;13.27;4.50;;;;;;;;;;5054070;28;20029;-76
2024/01/08 01:07:23;;;;;;;7.37;4.47;;;;;;;;;;5053405;28;20440;-73
2024/01/08 01:09:48;;;;;;;8.10;4.80;;;;;;;;;;5034753;28;20025;-75
2024/01/08 01:12:14;;;;;;;11.40;5.40;;;;;;;;;;5050171;28;20029;-73
2024/01/08 01:14:39;;;;;;;5.53;4.97;;;;;;;;;;5049807;28;20033;-73
2024/01/08 01:17:06;;;;;;;6.50;4.53;;;;;;;;;;5051391;28;20535;-75
2024/01/08 01:19:32;;;;;;;11.57;4.53;;;;;;;;;;5051045;28;20440;-73
2024/01/08 01:21:58;;;;;;;6.73;3.77;;;;;;;;;;5033371;28;20086;-74
2024/01/08 01:24:23;;;;;;;8.13;3.60;;;;;;;;;;5050102;28;20568;-74
2024/01/08 01:26:50;;;;;;;9.43;4.20;;;;;;;;;;5037283;28;20652;-74
2024/01/08 01:29:16;;;;;;;5.13;3.37;;;;;;;;;;5032128;28;20040;-73
2024/01/08 01:31:42;;;;;;;6.10;3.20;;;;;;;;;;5042746;28;20032;-75
2024/01/08 01:34:10;;;;;;;10.67;3.93;;;;;;;;;;5041216;28;20036;-74
2024/01/08 01:36:36;;;;;;;8.20;4.07;;;;;;;;;;5029438;28;20033;-74
2024/01/08 01:39:03;;;;;;;7.97;3.40;;;;;;;;;;5047815;28;20075;-77
2024/01/08 01:41:28;;;;;;;7.17;3.60;;;;;;;;;;5049161;28;20041;-73
2024/01/08 01:43:54;;;;;;;6.30;4.43;;;;;;;;;;5049164;28;20503;-72
2024/01/08 01:46:29;;;;;;;5.60;3.63;;;;;;;;;;5049616;28;20052;-75
2024/01/08 01:48:55;;;;;;;8.10;4.00;;;;;;;;;;5050597;28;20064;-73
2024/01/08 01:51:21;;;;;;;3.93;3.47;;;;;;;;;;5049713;28;20053;-74
2024/01/08 01:53:47;;;;;;;10.63;3.97;;;;;;;;;;5051566;28;20049;-74
2024/01/08 01:56:13;;;;;;;7.03;3.97;;;;;;;;;;5055655;28;20024;-74
2024/01/08 01:58:38;;;;;;;10.30;3.90;;;;;;;;;;5052946;28;20431;-75
2024/01/08 02:01:04;;;;;;;6.07;2.73;;;;;;;;;;5054225;28;20598;-77
2024/01/08 02:03:31;;;;;;;5.70;3.80;;;;;;;;;;5053692;28;20031;-75
2024/01/08 02:05:57;;;;;;;8.07;3.73;;;;;;;;;;5050515;28;20040;-73
2024/01/08 02:08:24;;;;;;;8.37;4.40;;;;;;;;;;5050693;28;20036;-75
2024/01/08 02:10:50;;;;;;;3.50;2.97;;;;;;;;;;5050159;28;20029;-75
2024/01/08 02:13:15;;;;;;;4.67;3.27;;;;;;;;;;5046238;28;20040;-74
2024/01/08 02:15:41;;;;;;;6.67;3.90;;;;;;;;;;5028891;28;20029;-73
2024/01/08 02:18:07;;;;;;;4.07;2.73;;;;;;;;;;5029789;28;20040;-75
2024/01/08 02:20:32;;;;;;;5.87;3.47;;;;;;;;;;5028985;28;20033;-68
2024/01/08 02:22:58;;;;;;;7.67;4.50;;;;;;;;;;5028968;28;20029;-74
2024/01/08 02:25:26;;;;;;;5.63;3.97;;;;;;;;;;5035345;28;20029;-75
2024/01/08 02:27:52;;;;;;;5.70;3.80;;;;;;;;;;5048445;28;20170;-76
2024/01/08 02:30:18;;;;;;;5.07;3.70;;;;;;;;;;5048655;28;20029;-74
2024/01/08 02:32:43;;;;;;;6.03;3.67;;;;;;;;;;5048491;28;20403;-76
2024/01/08 02:35:09;;;;;;;8.93;3.57;;;;;;;;;;5048588;28;20395;-73
2024/01/08 02:37:34;;;;;;;6.97;3.60;;;;;;;;;;5047469;28;20111;-75
2024/01/08 02:40:00;;;;;;;7.17;3.93;;;;;;;;;;5048506;28;20041;-75
2024/01/08 02:42:25;;;;;;;8.90;3.77;;;;;;;;;;5048617;28;20086;-74
2024/01/08 02:44:51;;;;;;;8.23;3.53;;;;;;;;;;5048321;28;20033;-73
2024/01/08 02:47:16;;;;;;;4.10;3.57;;;;;;;;;;5048560;28;20071;-75
2024/01/08 02:49:42;;;;;;;7.90;4.87;;;;;;;;;;5040569;28;20128;-73
2024/01/08 02:52:08;;;;;;;5.27;3.90;;;;;;;;;;5027484;28;20056;-74
2024/01/08 02:54:33;;;;;;;8.07;4.47;;;;;;;;;;5029449;28;20029;-74
2024/01/08 02:56:59;;;;;;;8.67;4.40;;;;;;;;;;5027947;28;20036;-74
2024/01/08 02:59:25;;;;;;;7.00;4.07;;;;;;;;;;5029541;28;20052;-73
2024/01/08 03:01:50;;;;;;;7.13;4.27;;;;;;;;;;5030447;28;20477;-73
2024/01/08 03:04:16;;;;;;;8.00;4.63;;;;;;;;;;5030099;28;20112;-75
2024/01/08 03:06:42;;;;;;;9.40;4.17;;;;;;;;;;5028127;28;20049;-74
2024/01/08 03:09:07;;;;;;;6.13;3.87;;;;;;;;;;5027932;28;20032;-74
2024/01/08 03:11:33;;;;;;;8.77;4.37;;;;;;;;;;5034894;28;20068;-75
2024/01/08 03:13:58;;;;;;;6.13;3.63;;;;;;;;;;5046745;28;20051;-74
2024/01/08 03:16:24;;;;;;;10.40;5.23;;;;;;;;;;5047919;28;20040;-76
2024/01/08 03:18:50;;;;;;;10.07;4.40;;;;;;;;;;5048989;28;20078;-74
2024/01/08 03:21:15;;;;;;;8.43;4.73;;;;;;;;;;5034577;28;20111;-75
2024/01/08 03:23:41;;;;;;;7.37;4.07;;;;;;;;;;5027544;28;20029;-72
2024/01/08 03:26:06;;;;;;;8.10;4.50;;;;;;;;;;5037298;28;20039;-73
2024/01/08 03:28:32;;;;;;;8.17;4.90;;;;;;;;;;5047817;28;20067;-74
2024/01/08 03:30:59;;;;;;;7.57;4.77;;;;;;;;;;5047852;28;20036;-74
2024/01/08 03:33:24;;;;;;;8.40;5.40;;;;;;;;;;5047235;28;20560;-75
2024/01/08 03:35:50;;;;;;;9.13;4.87;;;;;;;;;;5047426;28;20120;-77
2024/01/08 03:38:15;;;;;;;8.17;4.43;;;;;;;;;;5047668;28;20025;-76
2024/01/08 03:40:41;;;;;;;8.37;5.43;;;;;;;;;;5049034;28;20029;-74
2024/01/08 03:43:06;;;;;;;11.27;5.13;;;;;;;;;;5048122;28;20200;-76
2024/01/08 03:45:32;;;;;;;8.93;4.63;;;;;;;;;;5035035;28;20516;-75
2024/01/08 03:47:57;;;;;;;13.77;4.30;;;;;;;;;;5027735;28;20029;-74
2024/01/08 03:50:23;;;;;;;10.50;4.97;;;;;;;;;;5030096;28;20052;-74
2024/01/08 03:52:50;;;;;;;9.10;4.60;;;;;;;;;;5031305;28;20054;-75
2024/01/08 03:55:16;;;;;;;12.70;6.10;;;;;;;;;;5034953;28;20029;-74
2024/01/08 03:57:42;;;;;;;9.00;4.67;;;;;;;;;;5034224;28;20174;-77
2024/01/08 04:00:08;;;;;;;12.63;5.77;;;;;;;;;;5028133;28;20044;-73
2024/01/08 04:02:34;;;;;;;10.67;4.90;;;;;;;;;;5029607;28;20029;-75
2024/01/08 04:05:00;;;;;;;9.23;5.13;;;;;;;;;;5032726;28;20037;-75
2024/01/08 04:07:25;;;;;;;10.80;5.50;;;;;;;;;;5031778;28;20029;-75
2024/01/08 04:09:51;;;;;;;9.90;5.13;;;;;;;;;;5048752;28;20456;-75
2024/01/08 04:12:17;;;;;;;12.70;5.80;;;;;;;;;;5055196;28;20490;-75
2024/01/08 04:14:42;;;;;;;12.20;5.67;;;;;;;;;;5055738;28;20033;-75
2024/01/08 04:17:09;;;;;;;11.73;5.83;;;;;;;;;;5053622;28;20047;-72
2024/01/08 04:19:35;;;;;;;13.50;6.53;;;;;;;;;;5051367;28;20029;-74
2024/01/08 04:22:01;;;;;;;12.60;5.77;;;;;;;;;;5034633;28;20677;-74
2024/01/08 04:24:26;;;;;;;14.13;5.97;;;;;;;;;;5031542;28;20043;-74
2024/01/08 04:26:52;;;;;;;12.90;6.90;;;;;;;;;;5032613;28;20508;-74
2024/01/08 04:29:17;;;;;;;25.17;7.13;;;;;;;;;;5031034;28;20388;-74
2024/01/08 04:31:44;;;;;;;17.30;6.13;;;;;;;;;;5031037;28;20029;-75
2024/01/08 04:34:10;;;;;;;10.40;5.60;;;;;;;;;;5033712;28;20079;-73
2024/01/08 04:36:45;;;;;;;10.00;5.33;;;;;;;;;;5031206;28;20037;-74
2024/01/08 04:39:11;;;;;;;11.90;6.97;;;;;;;;;;5030995;28;20033;-75
2024/01/08 04:41:36;;;;;;;11.43;5.60;;;;;;;;;;5031027;28;20431;-74
2024/01/08 04:44:02;;;;;;;10.67;4.97;;;;;;;;;;5030885;28;20029;-76
2024/01/08 04:46:29;;;;;;;11.67;6.53;;;;;;;;;;5048034;28;20190;-75
2024/01/08 04:48:54;;;;;;;13.00;5.37;;;;;;;;;;5050566;28;20396;-73
2024/01/08 04:51:21;;;;;;;13.00;6.63;;;;;;;;;;5052453;28;20032;-75
2024/01/08 04:53:47;;;;;;;11.03;6.03;;;;;;;;;;5052475;28;20049;-75
2024/01/08 04:56:23;;;;;;;14.33;6.37;;;;;;;;;;5051864;28;20024;-74
2024/01/08 04:58:52;;;;;;;14.80;6.77;;;;;;;;;;5032762;28;20100;-75
2024/01/08 05:01:18;;;;;;;10.37;5.07;;;;;;;;;;5031088;28;20437;-75
2024/01/08 05:03:44;;;;;;;17.73;7.67;;;;;;;;;;5032260;28;20108;-73
2024/01/08 05:06:11;;;;;;;13.83;6.87;;;;;;;;;;5029999;28;20052;-72
2024/01/08 05:08:40;;;;;;;15.17;7.20;;;;;;;;;;5030213;28;20543;-74
2024/01/08 05:11:06;;;;;;;17.43;7.03;;;;;;;;;;5049694;28;20040;-76
2024/01/08 05:13:34;;;;;;;17.77;8.27;;;;;;;;;;5051193;28;20037;-74
2024/01/08 05:16:01;;;;;;;10.30;6.17;;;;;;;;;;5051260;28;20036;-74
2024/01/08 05:18:26;;;;;;;15.07;5.80;;;;;;;;;;5051773;28;20024;-76
2024/01/08 05:20:52;;;;;;;13.77;6.90;;;;;;;;;;5049981;28;20055;-73
2024/01/08 05:23:17;;;;;;;20.77;8.07;;;;;;;;;;5041941;28;20048;-74
2024/01/08 05:25:43;;;;;;;11.37;6.93;;;;;;;;;;5040894;28;20037;-71
2024/01/08 05:28:09;;;;;;;15.57;6.67;;;;;;;;;;5041132;28;20033;-73
2024/01/08 05:30:34;;;;;;;15.23;7.70;;;;;;;;;;5049827;28;20032;-74
2024/01/08 05:33:00;;;;;;;13.20;7.13;;;;;;;;;;5048381;28;20036;-71
2024/01/08 05:35:26;;;;;;;17.43;7.43;;;;;;;;;;5031410;28;20077;-76
2024/01/08 05:37:52;;;;;;;13.67;6.87;;;;;;;;;;5031115;28;20037;-76
2024/01/08 05:40:17;;;;;;;19.37;7.33;;;;;;;;;;5029947;28;20420;-74
2024/01/08 05:42:43;;;;;;;18.30;7.50;;;;;;;;;;5031758;28;20041;-74
2024/01/08 05:45:10;;;;;;;17.43;7.33;;;;;;;;;;5030815;28;20179;-75
2024/01/08 05:47:36;;;;;;;26.10;7.53;;;;;;;;;;5031157;28;20470;-74
2024/01/08 05:50:05;;;;;;;17.37;8.37;;;;;;;;;;5031646;28;20079;-75
2024/01/08 05:52:31;;;;;;;20.93;7.83;;;;;;;;;;5031587;28;20394;-75
2024/01/08 05:54:57;;;;;;;16.43;6.83;;;;;;;;;;5031259;28;20046;-74
2024/01/08 05:57:23;;;;;;;15.60;7.83;;;;;;;;;;5034683;28;20116;-75
2024/01/08 05:59:48;;;;;;;13.03;6.90;;;;;;;;;;5050934;28;20029;-74
2024/01/08 06:02:14;;;;;;;15.33;6.97;;;;;;;;;;5055978;28;20040;-75
2024/01/08 06:04:40;;;;;;;16.13;7.10;;;;;;;;;;5055342;28;20427;-76
2024/01/08 06:07:05;;;;;;;20.50;7.07;;;;;;;;;;5051158;28;20029;-74
2024/01/08 06:09:31;;;;;;;17.87;6.60;;;;;;;;;;5047772;28;20087;-75
2024/01/08 06:11:58;;;;;;;13.77;7.23;;;;;;;;;;5033756;28;20039;-76
2024/01/08 06:14:25;;;;;;;18.90;8.40;;;;;;;;;;5029924;28;20092;-75
2024/01/08 06:16:51;;;;;;;15.77;7.87;;;;;;;;;;5045358;28;20052;-77
2024/01/08 06:19:17;;;;;;;18.07;7.43;;;;;;;;;;5040088;28;20056;-70
2024/01/08 06:21:42;;;;;;;9.57;5.57;;;;;;;;;;5035228;28;20060;-72
2024/01/08 06:24:08;;;;;;;15.03;6.60;;;;;;;;;;5034014;28;20025;-75
2024/01/08 06:26:34;;;;;;;17.23;7.40;;;;;;;;;;5045432;28;20347;-77
2024/01/08 06:29:00;;;;;;;11.97;6.10;;;;;;;;;;5040273;28;20552;-75
2024/01/08 06:31:27;;;;;;;15.73;7.10;;;;;;;;;;5048250;28;20689;-73
2024/01/08 06:33:53;;;;;;;9.87;5.57;;;;;;;;;;5036151;28;20018;-73
2024/01/08 06:36:19;;;;;;;6.60;4.60;;;;;;;;;;5043023;28;20063;-76
2024/01/08 06:38:47;;;;;;;12.27;6.37;;;;;;;;;;5036642;28;20551;-73
2024/01/08 06:41:14;;;;;;;22.67;8.83;;;;;;;;;;5041710;28;20032;-74
2024/01/08 06:43:40;;;;;;;14.10;7.47;;;;;;;;;;5030852;28;20032;-74
2024/01/08 06:46:08;;;;;;;14.83;7.00;;;;;;;;;;5028132;28;20032;-74
2024/01/08 06:48:34;;;;;;;10.77;6.87;;;;;;;;;;5030820;28;20033;-77
2024/01/08 06:51:03;;;;;;;26.87;9.30;;;;;;;;;;5037092;28;20492;-74
2024/01/08 06:53:29;;;;;;;11.13;6.90;;;;;;;;;;5023396;28;20057;-77
2024/01/08 06:56:00;;;;;;;16.00;6.60;;;;;;;;;;5031951;28;20071;-75
2024/01/08 06:58:30;;;;;;;13.40;6.07;;;;;;;;;;5036856;28;20098;-75
2024/01/08 07:01:18;;;;;;;16.10;7.00;;;;;;;;;;5015027;28;20047;-73
2024/01/08 07:03:48;;;;;;;14.70;7.60;;;;;;;;;;5022237;28;20381;-75
2024/01/08 07:06:21;;;;;;;11.50;5.60;;;;;;;;;;5041148;28;20092;-73
2024/01/08 07:08:52;;;;;;;10.77;5.97;;;;;;;;;;5029504;28;20107;-75
2024/01/08 07:11:28;;;;;;;12.70;6.63;;;;;;;;;;5026933;28;20528;-75
2024/01/08 07:14:05;;;;;;;17.17;6.77;;;;;;;;;;5036155;28;20548;-77
2024/01/08 07:16:32;;;;;;;15.50;8.27;;;;;;;;;;5035325;28;20747;-76
2024/01/08 07:19:02;;;;;;;19.73;9.23;;;;;;;;;;5046421;28;20114;-75
2024/01/08 07:21:28;;;;;;;10.10;6.63;;;;;;;;;;5038347;28;20178;-76
2024/01/08 07:23:55;;;;;;;12.97;8.17;;;;;;;;;;5041068;28;20025;-76
2024/01/08 07:26:43;;;;;;;20.53;8.27;;;;;;;;;;5040506;28;20106;-70
2024/01/08 07:29:10;;;;;;;12.73;7.30;;;;;;;;;;5036690;28;20108;-74
2024/01/08 07:31:38;;;;;;;22.90;8.00;;;;;;;;;;5012547;28;20056;-75
2024/01/08 07:34:04;;;;;;;14.00;7.93;;;;;;;;;;5033181;28;20408;-73
2024/01/08 07:36:33;;;;;;;21.70;8.90;;;;;;;;;;5040300;28;20036;-74
2024/01/08 07:38:59;;;;;;;15.77;8.77;;;;;;;;;;5038371;28;20480;-75
2024/01/08 07:41:29;;;;;;;17.00;8.07;;;;;;;;;;5040611;28;20526;-77
2024/01/08 07:43:59;;;;;;;19.20;8.63;;;;;;;;;;5039545;28;20021;-76
2024/01/08 07:46:30;;;;;;;21.30;7.93;;;;;;;;;;5040980;28;20123;-74
2024/01/08 07:48:56;;;;;;;12.93;6.90;;;;;;;;;;5041128;28;20027;-75
2024/01/08 07:51:25;;;;;;;17.83;7.80;;;;;;;;;;5042361;28;20036;-74
2024/01/08 07:53:52;;;;;;;20.30;8.23;;;;;;;;;;5012481;28;20062;-74
2024/01/08 07:56:28;;;;;;;15.37;8.30;;;;;;;;;;5045624;28;20171;-75
2024/01/08 07:59:02;;;;;;;19.23;8.07;;;;;;;;;;5036402;28;20471;-74
2024/01/08 08:01:35;;;;;;;18.40;7.90;;;;;;;;;;5046725;28;20033;-76
2024/01/08 08:04:04;;;;;;;17.97;10.23;;;;;;;;;;5049816;28;20044;-74
2024/01/08 08:06:33;;;;;;;18.53;8.73;;;;;;;;;;5046247;28;20524;-73
2024/01/08 08:09:06;;;;;;;19.23;9.20;;;;;;;;;;5041478;28;20033;-76
2024/01/08 08:11:46;;;;;;;17.07;8.83;;;;;;;;;;5022535;28;20041;-73
2024/01/08 08:14:12;;;;;;;17.23;9.40;;;;;;;;;;5040066;28;20044;-76
2024/01/08 08:16:39;;;;;;;18.63;9.63;;;;;;;;;;5040931;28;20045;-75
2024/01/08 08:19:07;;;;;;;16.07;8.33;;;;;;;;;;5045722;28;20381;-74
2024/01/08 08:21:40;;;;;;;14.60;7.82;;;;;;;;;;5044721;28;20393;-76
2024/01/08 08:24:12;;;;;;;15.73;8.17;;;;;;;;;;5041499;28;20106;-73
2024/01/08 08:26:43;;;;;;;17.40;9.60;;;;;;;;;;5045027;28;20025;-68
2024/01/08 08:29:10;;;;;;;16.87;9.87;;;;;;;;;;5045430;28;20020;-75
2024/01/08 08:31:44;;;;;;;17.60;10.13;;;;;;;;;;5054344;28;20054;-71
2024/01/08 08:34:36;;;;;;;24.50;9.87;;;;;;;;;;5052917;28;20032;-75
2024/01/08 08:37:03;;;;;;;15.97;9.97;;;;;;;;;;5039060;28;20233;-75
2024/01/08 08:39:29;;;;;;;18.53;9.70;;;;;;;;;;5041998;28;20504;-72
2024/01/08 08:42:00;;;;;;;20.43;9.63;;;;;;;;;;5022353;28;20040;-72
2024/01/08 08:44:27;;;;;;;18.10;9.80;;;;;;;;;;5035009;28;20021;-77
2024/01/08 08:46:53;;;;;;;17.53;9.20;;;;;;;;;;5037844;28;20549;-75
2024/01/08 08:49:24;;;;;;;20.30;9.13;;;;;;;;;;5041921;28;20028;-74
2024/01/08 08:51:59;;;;;;;27.47;11.50;;;;;;;;;;5065103;28;20059;-74
2024/01/08 08:54:27;;;;;;;19.23;8.50;;;;;;;;;;5044186;28;20141;-74
2024/01/08 08:56:53;;;;;;;24.77;9.40;;;;;;;;;;5068655;28;20850;-76
2024/01/08 08:59:20;;;;;;;22.27;9.17;;;;;;;;;;5004774;28;20556;-74
2024/01/08 09:01:51;;;;;;;23.47;10.63;;;;;;;;;;5005679;28;20494;-76
2024/01/08 09:04:24;;;;;;;21.90;11.47;;;;;;;;;;4985788;28;20104;-74
2024/01/08 09:06:50;;;;;;;21.40;9.50;;;;;;;;;;4994650;28;20482;-73
2024/01/08 09:09:16;;;;;;;19.53;10.67;;;;;;;;;;4987302;28;20041;-77
2024/01/08 09:11:46;;;;;;;21.20;10.20;;;;;;;;;;5005592;28;20026;-76
2024/01/08 09:14:11;;;;;;;19.20;9.67;;;;;;;;;;5003736;28;20060;-77
2024/01/08 09:16:38;;;;;;;25.40;10.80;;;;;;;;;;5009618;28;20060;-75
2024/01/08 09:19:04;;;;;;;17.93;11.60;;;;;;;;;;5003840;28;20482;-73
2024/01/08 09:21:30;;;;;;;24.87;10.80;;;;;;;;;;4985766;28;20401;-72
2024/01/08 09:24:03;;;;;;;22.20;11.57;;;;;;;;;;4991338;28;20540;-74
2024/01/08 09:26:29;;;;;;;18.33;9.73;;;;;;;;;;4984904;28;20134;-74
2024/01/08 09:28:55;;;;;;;16.40;8.23;;;;;;;;;;5005469;28;20038;-77
2024/01/08 09:31:21;;;;;;;21.70;10.80;;;;;;;;;;5035904;28;20029;-76
2024/01/08 09:33:47;;;;;;;17.87;8.13;;;;;;;;;;5039966;28;20107;-70
2024/01/08 09:36:14;;;;;;;18.70;9.63;;;;;;;;;;5037722;28;20341;-74
2024/01/08 09:38:45;;;;;;;15.13;7.93;;;;;;;;;;5034265;28;20025;-75
2024/01/08 09:41:12;;;;;;;16.93;9.33;;;;;;;;;;5035241;28;20170;-75
2024/01/08 09:43:39;;;;;;;19.63;10.70;;;;;;;;;;5046040;28;20017;-74
2024/01/08 09:46:10;;;;;;;22.07;9.97;;;;;;;;;;5040577;28;20022;-75
2024/01/08 09:48:37;;;;;;;16.83;9.07;;;;;;;;;;5042582;28;20071;-77
2024/01/08 09:51:04;;;;;;;23.43;10.17;;;;;;;;;;5044922;28;20088;-76
2024/01/08 09:53:32;;;;;;;20.50;10.10;;;;;;;;;;5024179;28;20045;-76
2024/01/08 09:56:02;;;;;;;19.80;10.93;;;;;;;;;;5043050;28;20029;-75
2024/01/08 09:58:28;;;;;;;18.50;10.27;;;;;;;;;;5048750;28;20377;-75
2024/01/08 10:00:54;;;;;;;18.63;9.57;;;;;;;;;;5046359;28;20333;-75
2024/01/08 10:03:23;;;;;;;17.13;9.30;;;;;;;;;;5049410;28;20380;-73
2024/01/08 10:05:51;;;;;;;28.37;10.77;;;;;;;;;;5040017;28;20029;-73
2024/01/08 10:08:18;;;;;;;21.37;9.03;;;;;;;;;;5044799;28;20043;-75
2024/01/08 10:10:45;;;;;;;15.87;8.40;;;;;;;;;;5042811;28;20025;-78
2024/01/08 10:13:12;;;;;;;24.37;9.80;;;;;;;;;;5017275;28;20036;-76
2024/01/08 10:15:54;;;;;;;18.40;8.90;;;;;;;;;;5035580;28;20140;-72
2024/01/08 10:18:23;;;;;;;16.27;8.10;;;;;;;;;;5034312;28;20029;-73
2024/01/08 10:21:06;;;;;;;18.17;9.33;;;;;;;;;;5039134;28;20116;-77
2024/01/08 10:23:32;;;;;;;23.37;10.77;;;;;;;;;;5035770;28;20037;-75
2024/01/08 10:25:59;;;;;;;15.77;7.47;;;;;;;;;;5034732;28;20384;-76
2024/01/08 10:28:24;;;;;;;18.73;10.57;;;;;;;;;;5037182;28;20101;-78
2024/01/08 10:30:52;;;;;;;19.43;8.70;;;;;;;;;;5036584;28;20100;-76
2024/01/08 10:33:19;;;;;;;19.00;8.87;;;;;;;;;;5039099;28;20035;-79
2024/01/08 10:35:45;;;;;;;16.80;9.70;;;;;;;;;;5043186;28;20155;-75
2024/01/08 10:38:12;;;;;;;24.03;9.93;;;;;;;;;;5049004;28;20036;-79
2024/01/08 10:40:38;;;;;;;23.47;10.83;;;;;;;;;;5045671;28;20044;-73
2024/01/08 10:43:04;;;;;;;18.63;9.50;;;;;;;;;;5039893;28;20025;-74
2024/01/08 10:45:31;;;;;;;25.23;10.20;;;;;;;;;;5041141;28;20139;-75
2024/01/08 10:48:25;;;;;;;22.80;10.07;;;;;;;;;;5046902;28;20103;-74
2024/01/08 10:50:54;;;;;;;19.73;9.77;;;;;;;;;;5030010;28;20489;-77
2024/01/08 10:53:35;;;;;;;23.20;10.23;;;;;;;;;;5054521;28;20041;-76
2024/01/08 10:56:15;;;;;;;18.13;9.07;;;;;;;;;;5047980;28;20472;-74
2024/01/08 10:58:51;;;;;;;18.73;9.53;;;;;;;;;;5044796;28;20033;-74
2024/01/08 11:01:18;;;;;;;19.87;9.77;;;;;;;;;;5048965;28;20556;-77
2024/01/08 11:10:40;;;;;;;15.83;8.53;;;;;;;;;;5016393;28;20096;-74
2024/01/08 11:13:06;;;;;;;19.37;9.03;;;;;;;;;;5038540;28;20083;-74
2024/01/08 11:15:32;;;;;;;21.47;9.07;;;;;;;;;;5052062;28;20057;-78
2024/01/08 11:17:59;;;;;;;24.07;9.53;;;;;;;;;;5025355;28;20040;-75
2024/01/08 11:20:51;;;;;;;22.80;11.13;;;;;;;;;;5039569;28;20065;-76
2024/01/08 11:23:40;;;;;;;18.25;10.77;;;;;;;;;;5038369;28;20032;-76
2024/01/08 11:26:19;;;;;;;21.67;9.00;;;;;;;;;;5033549;28;20071;-75
2024/01/08 11:29:09;;;;;;;23.43;10.60;;;;;;;;;;5048030;28;20029;-76
2024/01/08 11:31:50;;;;;;;17.60;9.73;;;;;;;;;;5064161;28;20110;-74
2024/01/08 11:34:34;;;;;;;20.53;10.20;;;;;;;;;;5041242;28;20330;-76
2024/01/08 11:37:27;;;;;;;23.83;10.00;;;;;;;;;;5038019;28;20026;-75
2024/01/08 11:39:55;;;;;;;18.07;9.80;;;;;;;;;;5042721;28;20764;-76
2024/01/08 11:42:22;;;;;;;44.60;22.10;;;;;;;;;;5050878;28;20111;-77
2024/01/08 11:44:51;;;;;;;20.10;10.57;;;;;;;;;;5048608;28;20036;-75
2024/01/08 11:47:18;;;;;;;17.03;8.17;;;;;;;;;;5041376;28;20025;-75
2024/01/08 11:49:49;;;;;;;20.97;9.90;;;;;;;;;;5030697;28;20116;-74
2024/01/08 11:52:17;;;;;;;28.77;11.63;;;;;;;;;;5037875;28;20053;-74
2024/01/08 11:54:49;;;;;;;15.43;8.30;;;;;;;;;;5040403;28;20247;-76
2024/01/08 11:57:19;;;;;;;26.17;9.97;;;;;;;;;;5026356;28;20049;-75
2024/01/08 11:59:46;;;;;;;15.80;8.37;;;;;;;;;;5041887;28;20025;-75
2024/01/08 12:02:21;;;;;;;19.87;9.80;;;;;;;;;;5040012;28;20044;-77
2024/01/08 12:05:00;;;;;;;20.17;9.47;;;;;;;;;;5036491;28;20051;-76
2024/01/08 12:07:28;;;;;;;15.03;7.43;;;;;;;;;;5039478;28;20040;-73
2024/01/08 12:10:05;;;;;;;20.77;10.37;;;;;;;;;;5013112;28;20516;-76
2024/01/08 12:12:31;;;;;;;21.17;8.40;;;;;;;;;;5038152;28;20503;-76
2024/01/08 12:15:09;;;;;;;20.43;8.83;;;;;;;;;;5021958;28;20033;-74
2024/01/08 12:17:39;;;;;;;22.00;10.33;;;;;;;;;;5038783;28;20065;-75
2024/01/08 12:20:06;;;;;;;21.87;9.43;;;;;;;;;;5038003;28;20028;-74
2024/01/08 12:22:32;;;;;;;21.17;9.27;;;;;;;;;;5041681;28;20040;-75
2024/01/08 12:24:59;;;;;;;22.67;9.87;;;;;;;;;;5045672;28;20022;-73
2024/01/08 12:27:30;;;;;;;20.93;10.63;;;;;;;;;;5046672;28;20029;-75
2024/01/08 12:29:57;;;;;;;18.63;9.63;;;;;;;;;;5041334;28;20033;-76
2024/01/08 12:32:27;;;;;;;15.60;9.07;;;;;;;;;;5044985;28;20033;-76
2024/01/08 12:34:53;;;;;;;18.87;8.80;;;;;;;;;;5039422;28;20478;-75
2024/01/08 12:37:21;;;;;;;22.73;10.00;;;;;;;;;;5038989;28;20127;-77
2024/01/08 12:39:47;;;;;;;27.13;11.23;;;;;;;;;;5049732;28;20024;-74
2024/01/08 12:42:16;;;;;;;21.73;9.93;;;;;;;;;;5018325;28;20107;-72
2024/01/08 12:44:49;;;;;;;19.33;10.27;;;;;;;;;;5037999;28;20115;-75
2024/01/08 12:47:15;;;;;;;23.37;10.70;;;;;;;;;;5056140;28;20071;-75
2024/01/08 12:49:42;;;;;;;21.70;10.60;;;;;;;;;;5041315;28;20443;-75
2024/01/08 12:52:11;;;;;;;21.17;9.50;;;;;;;;;;5024766;28;20053;-77
2024/01/08 12:54:41;;;;;;;22.07;10.20;;;;;;;;;;5035848;28;20377;-76
2024/01/08 12:57:13;;;;;;;17.10;9.70;;;;;;;;;;5033373;28;20029;-73
2024/01/08 12:59:54;;;;;;;17.43;7.90;;;;;;;;;;5036318;28;20477;-75
2024/01/08 13:02:27;;;;;;;21.23;10.50;;;;;;;;;;5045154;28;20035;-77
2024/01/08 13:04:53;;;;;;;31.33;9.20;;;;;;;;;;5049679;28;20052;-75
2024/01/08 13:07:20;;;;;;;23.17;10.43;;;;;;;;;;5042058;28;20485;-74
2024/01/08 13:09:46;;;;;;;14.47;8.20;;;;;;;;;;5042523;28;20091;-75
2024/01/08 13:12:12;;;;;;;24.67;10.67;;;;;;;;;;5045952;28;20033;-78
2024/01/08 13:14:39;;;;;;;18.50;8.43;;;;;;;;;;5043427;28;20033;-74
2024/01/08 13:17:05;;;;;;;19.57;9.57;;;;;;;;;;5026450;28;20144;-76
2024/01/08 13:19:34;;;;;;;17.10;9.27;;;;;;;;;;5037229;28;20747;-75
2024/01/08 13:22:02;;;;;;;18.27;8.80;;;;;;;;;;5042794;28;20033;-77
2024/01/08 13:24:28;;;;;;;25.30;9.87;;;;;;;;;;5062144;28;20115;-74
2024/01/08 13:26:53;;;;;;;26.07;9.13;;;;;;;;;;5027222;28;20220;-75
2024/01/08 13:29:19;;;;;;;24.93;9.33;;;;;;;;;;5039675;28;20601;-74
2024/01/08 13:31:48;;;;;;;19.20;8.73;;;;;;;;;;5035230;28;20025;-71
2024/01/08 13:34:13;;;;;;;21.80;9.50;;;;;;;;;;5045463;28;20025;-71
2024/01/08 13:36:41;;;;;;;26.57;10.43;;;;;;;;;;5032597;28;20638;-75
2024/01/08 13:39:08;;;;;;;17.77;8.17;;;;;;;;;;5043316;28;20477;-75
2024/01/08 13:41:36;;;;;;;20.17;10.73;;;;;;;;;;5035736;28;20025;-76
2024/01/08 13:44:03;;;;;;;17.53;9.30;;;;;;;;;;5044810;28;20029;-76
2024/01/08 13:46:29;;;;;;;21.63;10.10;;;;;;;;;;5032940;28;20032;-76
2024/01/08 13:48:55;;;;;;;22.30;10.27;;;;;;;;;;5016941;28;20048;-75
2024/01/08 13:51:22;;;;;;;19.63;9.73;;;;;;;;;;5044749;28;20476;-77
2024/01/08 13:53:50;;;;;;;23.37;10.53;;;;;;;;;;5030039;28;20049;-73
2024/01/08 13:56:17;;;;;;;23.20;9.67;;;;;;;;;;5028898;28;20449;-73
2024/01/08 13:58:42;;;;;;;22.67;10.07;;;;;;;;;;5035649;28;20032;-72
2024/01/08 14:01:29;;;;;;;22.67;9.17;;;;;;;;;;5034972;28;20040;-75
2024/01/08 14:03:55;;;;;;;28.50;11.03;;;;;;;;;;5038344;28;20088;-77
2024/01/08 14:06:24;;;;;;;18.57;8.97;;;;;;;;;;5038532;28;20036;-73
2024/01/08 14:08:51;;;;;;;20.87;8.93;;;;;;;;;;5050620;28;20492;-71
2024/01/08 14:11:20;;;;;;;17.50;8.13;;;;;;;;;;5036254;28;20032;-72
2024/01/08 14:13:46;;;;;;;21.77;10.23;;;;;;;;;;5021926;28;20045;-74
2024/01/08 14:16:12;;;;;;;20.47;9.90;;;;;;;;;;5044256;28;20092;-73
2024/01/08 14:18:40;;;;;;;14.40;8.27;;;;;;;;;;5046188;28;20025;-76
2024/01/08 14:21:08;;;;;;;22.47;10.87;;;;;;;;;;5043107;28;20029;-71
2024/01/08 14:23:34;;;;;;;18.43;8.47;;;;;;;;;;5035736;28;20167;-75
2024/01/08 14:26:03;;;;;;;21.20;9.37;;;;;;;;;;5050806;28;20107;-73
2024/01/08 14:28:35;;;;;;;19.00;9.00;;;;;;;;;;5038740;28;20039;-75
2024/01/08 14:31:01;;;;;;;21.00;9.60;;;;;;;;;;5040572;28;20037;-75
2024/01/08 14:33:27;;;;;;;18.00;8.17;;;;;;;;;;5039478;28;20116;-77
2024/01/08 14:35:54;;;;;;;23.97;10.27;;;;;;;;;;5040169;28;20112;-75
2024/01/08 14:38:20;;;;;;;21.20;9.23;;;;;;;;;;5036928;28;20124;-75
2024/01/08 14:40:46;;;;;;;20.87;8.87;;;;;;;;;;5037221;28;20025;-75
2024/01/08 14:43:14;;;;;;;22.03;9.03;;;;;;;;;;5027129;28;20048;-73